首页
METAR-TAF:

METAR-TAF

机场 :

庫內奧, 意大利

纬度: 44-32-47N, 经度: 007-37-20E, 海拔: 386米

当前天气观测

该预报发布于6小时和33分钟前的18:50 UTC
风速2节,风向
温度 25°C
湿度 54%
气压 1016 hPa
能见度10公里或以上
1500米以下无云,无积雨云

METAR: LIMZ 171850Z 01002KT CAVOK 25/15 Q1016

时间: 03:23 (01:23 UTC)

预报

该预报发布于8小时和23分钟前的17:00 UTC
预报有效从17日的 18点(UTC)到 18日的 18点(UTC)
风速5节,风向多变
能见度10公里或以上
1500米以下无云,无积雨云

TAF: LIMZ 171700Z 1718/1818 VRB05KT CAVOK

超过4000个机场的气象观测和天气预报(METAR&TAF报告)。

可查询的气象台以黄色和红色小点在地图上表示。

将鼠标移到小点上方,可查看气象台名称。

然后点击查看天气观测和预报。

如需切换地图:点击带黑十字的绿色按钮放大地图;点击带横线的绿色按钮缩小地图;或者点击绿色箭头查看邻近地区的地图。


METAR-TAF: